Wenceslau Guimaraes, Brazil
Current Conditions -  °F | °C
As of 11:00 AM on Thursday 30 Oct 2014 (Local Time) from SBIL Reporting Station
Rain Showers Rain Showers  
Wind Chill: 81°   Ceiling: 7000
Heat Index: 85°   Visibility: 5mi
Dew Point: 73°   Wind: 12mph
Humidity: 79%   Direction: 30°NNE
Pressure: 30"   Gusts: NA
Location:  13.69°S, 39.48°W
Report Text: SBIL 301400Z 03010KT 8000 VCSH FEW015 SCT020 BKN070 27/23 Q1016
Loading
Personal Weather Stations






























Interactive Weather Map
Tropical Storm Tracking
New forecast layout! Learn more

10-Day Weather Forecast

Advertisements
Track Severe Weather on mobile